Latest Weather Observations for Milingimbi

IDD60801

Issued at 3:31 pm CST Friday 3 July 2015 (issued every 30 minutes, with the page automatically refreshed every 10 minutes)

About weather observations | Map of weather stations | Latest weather observations for NT | Other Formats
Station Details ID: 014404 Name: MILINGIMBI AIRPORT Lat: -12.09 Lon: 134.89 Height: 15.0 m
Data from the previous 72 hours. | See also: Recent months at Milingimbi
Date/Time
CST
Temp
°C
App
Temp
°C
Dew
Point
Rel
Hum
%
Delta-T
°C
Wind Press
QNH
hPa
Press
MSL
hPa
Rain
since 9 am
mm
Dir
 
Spd
km/h
Gust
km/h
Spd
kts
Gust
kts
03/03:30pm 29.2 27.7 16.4 46 8.0 ESE 19 26 10 14 1012.2 - 0.0
03/03:00pm 28.8 27.7 16.4 47 7.7 ESE 17 24 9 13 1012.6 1012.5 0.0
03/02:30pm 28.8 27.6 16.0 45 7.9 ESE 17 30 9 16 1013.0 - 0.0
03/02:00pm 28.7 26.9 15.9 45 7.9 ESE 20 30 11 16 1013.5 - 0.0
03/01:30pm 28.8 27.4 17.0 49 7.4 ESE 20 32 11 17 1014.2 - 0.0
03/01:00pm 28.5 27.7 17.1 50 7.2 E 17 26 9 14 1014.6 - 0.0
03/12:30pm 28.8 26.9 16.7 48 7.6 ESE 22 33 12 18 1015.0 - 0.0
03/12:00pm 28.3 25.8 16.2 47 7.5 SE 24 35 13 19 1015.4 1015.3 0.0
03/11:30am 28.3 26.5 16.9 50 7.1 ESE 22 32 12 17 1015.9 - 0.0
03/11:00am 28.1 25.4 17.6 53 6.6 SE 28 35 15 19 1016.1 - 0.0
03/10:30am 26.5 25.1 18.9 63 4.9 SE 24 35 13 19 1016.4 - 0.0
03/10:00am 25.7 24.5 19.3 67 4.1 SE 24 35 13 19 1016.6 - 0.0
03/09:30am 24.1 23.4 19.6 76 2.9 SSE 22 33 12 18 1016.7 - 0.0
03/09:00am 22.9 23.1 20.2 85 1.7 S 19 26 10 14 1016.5 1016.4 0.2
03/08:30am 21.4 22.4 20.2 93 0.8 SSE 15 20 8 11 1016.5 - 0.2
03/08:00am 20.7 21.9 19.9 95 0.5 SSE 13 19 7 10 1016.2 - 0.2
03/07:30am 20.7 22.3 19.9 95 0.5 SSE 11 13 6 7 1015.9 - 0.2
03/07:00am 20.5 21.6 19.7 95 0.5 SSE 13 15 7 8 1015.7 - 0.0
03/06:30am 20.6 21.7 19.6 94 0.6 SSE 13 17 7 9 1015.4 - 0.0
03/06:00am 20.5 21.9 19.5 94 0.6 SSE 11 13 6 7 1015.0 1014.9 0.0
03/05:30am 20.7 22.6 19.7 94 0.6 SSE 9 13 5 7 1014.8 - 0.0
03/05:00am 20.8 22.6 19.6 93 0.8 SSE 9 13 5 7 1014.7 - 0.0
03/04:30am 21.1 23.0 19.7 92 0.9 SSE 9 13 5 7 1014.8 - 0.0
03/04:00am 21.4 23.0 20.0 92 0.9 SE 11 13 6 7 1014.8 - 0.0
03/03:30am 21.5 23.1 20.0 91 1.0 SE 11 17 6 9 1014.9 - 0.0
03/03:00am 22.0 23.5 20.5 91 1.0 SE 13 17 7 9 1015.0 1014.9 0.0
03/02:30am 21.8 23.5 20.1 90 1.1 SE 11 13 6 7 1015.2 - 0.0
03/02:00am 21.9 23.1 20.0 89 1.2 SE 13 17 7 9 1015.7 - 0.0
03/01:30am 22.0 23.5 19.7 87 1.5 SE 11 17 6 9 1016.0 - 0.0
03/01:00am 22.0 23.4 19.5 86 1.6 SE 11 15 6 8 1016.3 - 0.0
03/12:30am 22.3 23.7 19.5 84 1.8 SSE 11 15 6 8 1016.5 - 0.0
03/12:00am 22.7 23.7 19.5 82 2.0 SE 13 19 7 10 1016.5 1016.4 0.0
 
Date/Time
CST
Temp
°C
App
Temp
°C
Dew
Point
Rel
Hum
%
Delta-T
°C
Wind Press
QNH
hPa
Press
MSL
hPa
Rain
since 9 am
mm
Dir
 
Spd
km/h
Gust
km/h
Spd
kts
Gust
kts
02/11:30pm 22.9 23.7 19.1 79 2.4 SE 13 17 7 9 1016.6 - 0.0
02/11:00pm 23.3 23.6 18.8 76 2.8 SE 15 20 8 11 1016.6 - 0.0
02/10:30pm 23.7 23.8 18.4 72 3.3 SE 15 20 8 11 1016.7 - 0.0
02/10:00pm 24.1 24.1 18.1 69 3.8 SSE 15 22 8 12 1016.6 - 0.0
02/09:30pm 24.6 24.4 17.6 65 4.4 SE 15 20 8 11 1016.5 - 0.0
02/09:00pm 24.9 24.7 17.6 64 4.6 SSE 15 20 8 11 1016.1 1016.0 0.0
02/08:30pm 25.3 25.3 17.2 61 5.0 SE 13 17 7 9 1015.9 - 0.0
02/08:00pm 25.9 25.6 17.3 59 5.4 SE 15 20 8 11 1015.4 - 0.0
02/07:30pm 26.1 25.7 17.2 58 5.6 SE 15 19 8 10 1015.1 - 0.0
02/07:00pm 26.7 25.9 17.2 56 5.9 SE 17 24 9 13 1014.8 - 0.0
02/06:30pm 27.0 25.9 17.2 55 6.1 SE 19 28 10 15 1014.5 - 0.0
02/06:00pm 27.6 26.4 17.5 54 6.4 SE 20 28 11 15 1014.2 1014.1 0.0
02/05:30pm 28.0 27.4 17.5 52 6.6 SE 17 26 9 14 1014.1 - 0.0
02/05:00pm 28.7 26.8 17.6 51 7.0 SE 24 32 13 17 1014.0 - 0.0
02/04:30pm 29.1 27.3 17.9 50 7.1 ESE 24 33 13 18 1013.8 - 0.0
02/04:00pm 29.8 27.5 17.6 48 7.8 SE 26 35 14 19 1013.7 - 0.0
02/03:30pm 29.7 28.0 18.2 50 7.4 ESE 24 33 13 18 1013.8 - 0.0
02/03:00pm 29.9 28.3 18.3 49 7.4 ESE 24 37 13 20 1014.0 1013.9 0.0
02/02:30pm 29.4 26.8 17.9 50 7.3 SE 28 37 15 20 1014.4 - 0.0
02/02:00pm 29.9 28.7 19.3 53 6.9 ESE 24 35 13 19 1014.7 - 0.0
02/01:30pm 29.2 27.6 18.3 51 7.0 ESE 24 39 13 21 1015.2 - 0.0
02/01:00pm 28.7 26.1 17.9 52 6.9 ESE 28 37 15 20 1015.6 - 0.0
02/12:30pm 28.8 26.9 18.6 54 6.6 ESE 26 35 14 19 1016.0 - 0.0
02/12:00pm 28.7 26.8 18.5 54 6.5 SE 26 41 14 22 1016.5 1016.4 0.0
02/11:30am 27.8 25.8 19.1 59 5.6 SE 28 37 15 20 1016.9 - 0.0
02/11:00am 27.5 25.3 18.8 59 5.6 SE 28 37 15 20 1017.3 - 0.0
02/10:30am 26.6 24.2 19.2 64 4.8 SE 30 37 16 20 1017.6 - 0.0
02/10:00am 25.8 25.1 19.4 67 4.1 SE 22 32 12 17 1017.8 - 0.0
02/09:30am 24.8 23.7 18.7 69 3.9 SE 22 32 12 17 1017.8 - 0.0
02/09:00am 24.2 23.3 18.2 69 3.8 SE 20 28 11 15 1017.6 1017.5 12.6
02/08:30am 23.0 23.6 19.4 80 2.3 SSE 15 20 8 11 1017.5 - 12.6
02/08:00am 22.0 22.1 19.2 84 1.8 SSE 17 22 9 12 1017.2 - 12.6
02/07:30am 21.5 22.3 19.1 86 1.5 SSE 13 17 7 9 1017.0 - 12.6
02/07:00am 21.1 22.1 19.4 90 1.1 SSE 13 17 7 9 1016.7 - 12.6
02/06:30am 21.2 22.7 19.8 92 0.9 SSE 11 15 6 8 1016.4 - 12.6
02/06:00am 21.2 22.7 19.7 91 1.0 SSE 11 17 6 9 1016.1 1016.0 12.6
02/05:30am 21.3 22.5 19.8 91 1.0 SSE 13 17 7 9 1015.9 - 12.6
02/05:00am 21.4 22.2 19.9 91 1.0 SSE 15 19 8 10 1015.7 - 12.6
02/04:30am 21.5 22.4 20.0 91 1.0 SSE 15 20 8 11 1015.6 - 12.6
02/04:00am 21.6 22.5 20.1 91 1.0 SSE 15 20 8 11 1015.6 - 12.6
02/03:30am 21.7 22.9 20.0 90 1.1 SSE 13 19 7 10 1015.8 - 12.6
02/03:00am 21.8 22.7 20.1 90 1.1 SSE 15 20 8 11 1015.9 1015.8 12.4
02/02:30am 21.8 22.8 20.3 91 1.0 SSE 15 20 8 11 1016.0 - 12.4
02/02:00am 22.0 23.1 20.5 91 1.0 SSE 15 20 8 11 1016.4 - 12.4
02/01:30am 22.1 23.6 20.6 91 1.0 SSE 13 19 7 10 1016.6 - 12.4
02/01:00am 22.4 23.7 20.9 91 1.0 SSE 15 20 8 11 1016.8 - 12.4
02/12:30am 22.5 24.6 21.0 91 1.0 SSE 11 15 6 8 1016.9 - 12.4
02/12:00am 22.5 24.7 21.1 92 0.9 SSE 11 17 6 9 1017.0 1016.9 12.4
 
Date/Time
CST
Temp
°C
App
Temp
°C
Dew
Point
Rel
Hum
%
Delta-T
°C
Wind Press
QNH
hPa
Press
MSL
hPa
Rain
since 9 am
mm
Dir
 
Spd
km/h
Gust
km/h
Spd
kts
Gust
kts
01/11:30pm 22.6 25.3 21.4 93 0.8 SSE 9 13 5 7 1017.3 - 12.4
01/11:00pm 22.6 25.3 21.4 93 0.8 SSE 9 13 5 7 1017.4 - 12.4
01/10:30pm 22.7 24.8 21.7 94 0.7 SE 13 17 7 9 1017.5 - 12.4
01/10:00pm 22.6 25.0 21.6 94 0.7 E 11 19 6 10 1017.7 - 11.8
01/09:30pm 23.0 25.3 21.4 91 1.1 E 11 17 6 9 1017.5 - 4.2
01/09:00pm 23.0 24.2 21.4 91 1.1 ESE 17 24 9 13 1017.5 1017.4 3.8
01/08:30pm 22.5 23.0 21.1 92 0.9 SE 20 30 11 16 1017.0 - 3.8
01/08:00pm 23.0 24.2 21.4 91 1.1 SE 17 24 9 13 1016.6 - 3.8
01/07:30pm 23.0 23.5 21.1 89 1.2 SE 20 32 11 17 1016.3 - 3.6
01/07:00pm 23.0 24.9 21.3 90 1.1 SSE 13 20 7 11 1016.0 - 3.6
01/06:30pm 23.0 25.1 20.9 88 1.4 SSE 11 15 6 8 1015.7 - 3.6
01/06:00pm 22.9 24.2 20.8 88 1.4 SSE 15 22 8 12 1015.5 1015.4 3.6
01/05:30pm 23.0 24.3 20.9 88 1.4 SE 15 20 8 11 1015.4 - 3.6
01/05:00pm 22.9 24.3 21.0 89 1.2 ESE 15 20 8 11 1015.2 - 3.6
01/04:30pm 22.5 23.1 21.0 91 1.0 E 19 30 10 16 1015.1 - 3.4
01/04:00pm 25.0 26.2 21.5 81 2.3 S 17 20 9 11 1014.5 - 0.2
01/03:30pm 27.5 29.1 20.8 67 4.4 S 13 17 7 9 1014.3 - 0.2
01/03:00pm 27.3 29.8 21.8 72 3.7 SSE 11 15 6 8 1014.5 1014.4 0.2
01/02:30pm 26.3 27.2 20.8 71 3.6 SSE 17 24 9 13 1014.6 - 0.2
01/02:00pm 24.8 25.8 21.7 83 2.1 SE 19 24 10 13 1015.0 - 0.2
01/01:30pm 24.0 25.2 22.1 89 1.3 SE 19 26 10 14 1015.2 - 0.2
01/01:00pm 27.7 28.6 20.0 63 5.0 ESE 15 20 8 11 1015.7 - 0.0
01/12:30pm 29.0 29.6 20.2 59 5.8 S 17 24 9 13 1016.0 - 0.0
01/12:00pm 28.7 29.5 20.7 62 5.3 SSE 17 24 9 13 1016.5 1016.4 0.0
01/11:30am 26.7 26.9 20.1 67 4.3 SSE 19 28 10 15 1016.9 - 0.0
01/11:00am 26.4 25.5 19.8 67 4.3 SE 24 33 13 18 1017.2 - 0.0
01/10:30am 26.8 27.3 20.9 70 3.9 SSE 19 28 10 15 1017.3 - 0.0
01/10:00am 25.6 26.4 20.6 74 3.3 SSE 17 26 9 14 1017.6 - 0.0
01/09:30am 24.8 26.1 20.9 79 2.6 S 15 20 8 11 1017.9 - 0.0
01/09:00am 23.6 25.2 20.7 84 1.9 S 13 17 7 9 1017.9 1017.8 0.0
01/08:30am 22.4 23.9 20.5 89 1.2 S 13 19 7 10 1017.5 - 0.0
01/08:00am 21.2 22.5 20.2 94 0.6 SSE 13 19 7 10 1017.3 - 0.0
01/07:30am 20.4 21.7 19.4 94 0.6 S 11 15 6 8 1017.0 - 0.0
01/07:00am 20.5 22.3 19.5 94 0.6 S 9 11 5 6 1016.6 - 0.0
01/06:30am 20.1 21.9 18.8 92 0.8 S 7 9 4 5 1016.5 - 0.0
01/06:00am 20.1 21.8 18.6 91 0.9 S 7 9 4 5 1016.2 1016.1 0.0
01/05:30am 20.4 22.8 18.9 91 0.9 SW 4 7 2 4 1015.8 - 0.0
01/05:00am 21.0 23.1 19.3 90 1.1 S 7 9 4 5 1015.9 - 0.0
01/04:30am 21.4 22.9 19.7 90 1.1 SSE 11 15 6 8 1015.7 - 0.0
01/04:00am 21.4 23.2 19.5 89 1.2 SE 9 13 5 7 1015.6 - 0.0
01/03:30am 21.3 23.2 19.0 87 1.5 SE 7 11 4 6 1015.6 - 0.0
01/03:00am 21.4 23.3 19.0 86 1.5 SE 7 11 4 6 1015.7 1015.6 0.0
01/02:30am 21.6 23.4 18.8 84 1.8 SE 7 9 4 5 1015.8 - 0.0
01/02:00am 21.6 23.3 18.4 82 2.0 SE 7 11 4 6 1016.3 - 0.0
01/01:30am 22.0 23.7 18.4 80 2.3 SE 7 9 4 5 1016.5 - 0.0
01/01:00am 22.1 23.6 18.1 78 2.5 SE 7 9 4 5 1016.7 - 0.0
01/12:30am 22.8 24.4 18.3 76 2.8 SSE 7 11 4 6 1016.8 - 0.0
01/12:00am 23.2 24.0 18.1 73 3.2 SE 11 17 6 9 1016.9 1016.8 0.0
 
Date/Time
CST
Temp
°C
App
Temp
°C
Dew
Point
Rel
Hum
%
Delta-T
°C
Wind Press
QNH
hPa
Press
MSL
hPa
Rain
since 9 am
mm
Dir
 
Spd
km/h
Gust
km/h
Spd
kts
Gust
kts
30/11:30pm 23.8 23.7 17.8 69 3.7 SE 15 19 8 10 1017.0 - 0.0
30/11:00pm 24.6 24.3 18.3 68 4.0 SE 17 26 9 14 1017.1 - 0.0
30/10:30pm 25.1 24.3 18.1 65 4.4 ESE 19 26 10 14 1017.1 - 0.0
30/10:00pm 24.8 25.7 18.3 67 4.1 ESE 11 17 6 9 1016.8 - 0.0
30/09:30pm 24.1 26.1 19.2 74 3.1 ESE 7 11 4 6 1016.6 - 0.0
30/09:00pm 22.9 25.0 18.9 78 2.5 E 6 7 3 4 1016.4 1016.3 0.0
30/08:30pm 23.1 26.2 18.6 76 2.8 CALM 0 0 0 0 1016.0 - 0.0
30/08:00pm 23.7 26.9 18.8 74 3.1 CALM 0 0 0 0 1015.5 - 0.0
30/07:30pm 24.1 27.0 18.1 69 3.8 CALM 0 0 0 0 1015.1 - 0.0
30/07:00pm 24.8 26.8 17.8 65 4.4 NE 4 6 2 3 1014.7 - 0.0
30/06:30pm 26.0 27.5 17.6 60 5.3 ENE 6 7 3 4 1014.4 - 0.0
30/06:00pm 27.2 28.6 17.4 55 6.2 E 6 9 3 5 1014.0 1013.9 0.0
30/05:30pm 28.0 28.6 16.9 51 6.9 ENE 9 13 5 7 1013.7 - 0.0
30/05:00pm 28.4 29.0 16.7 49 7.3 ENE 9 15 5 8 1013.5 - 0.0
30/04:30pm 28.7 28.6 15.9 45 7.9 E 11 15 6 8 1013.3 - 0.0
30/04:00pm 29.2 28.9 16.4 46 8.0 NE 13 19 7 10 1013.3 - 0.0

Other Formats:

Comma delimited format used in spreadsheet applications
http://www.bom.gov.au/fwo/IDD60801/IDD60801.94140.axf

JavaScript Object Notation format (JSON) in row-major order
http://www.bom.gov.au/fwo/IDD60801/IDD60801.94140.json